createdAt,value
2018-02-02T00:00:21.824Z,996.43
2018-02-02T00:01:31.779Z,996.43
2018-02-02T00:02:41.472Z,996.45
2018-02-02T00:03:51.712Z,996.46
2018-02-02T00:05:01.408Z,996.42
2018-02-02T00:06:11.355Z,996.4
2018-02-02T00:07:21.051Z,996.45
2018-02-02T00:08:30.988Z,996.43
2018-02-02T00:09:40.938Z,996.47
2018-02-02T00:10:50.893Z,996.46
2018-02-02T00:12:00.843Z,996.42
2018-02-02T00:13:10.885Z,996.43
2018-02-02T00:14:20.588Z,996.48
2018-02-02T00:15:30.532Z,996.46
2018-02-02T00:16:40.472Z,996.47
2018-02-02T00:17:50.457Z,996.49
2018-02-02T00:19:00.415Z,996.47
2018-02-02T00:20:10.352Z,996.53
2018-02-02T00:21:20.342Z,996.48
2018-02-02T00:22:29.984Z,996.49
2018-02-02T00:23:39.917Z,996.47
2018-02-02T00:24:49.867Z,996.5
2018-02-02T00:25:59.807Z,996.49
2018-02-02T00:27:09.494Z,996.5
2018-02-02T00:28:19.448Z,996.51
2018-02-02T00:29:29.393Z,996.47
2018-02-02T00:30:39.331Z,996.49
2018-02-02T00:31:49.271Z,996.51
2018-02-02T00:32:58.969Z,996.51
2018-02-02T00:34:08.914Z,996.47
2018-02-02T00:35:18.855Z,996.51
2018-02-02T00:36:28.793Z,996.49
2018-02-02T00:37:38.227Z,996.48
2018-02-02T00:38:47.650Z,996.46
2018-02-02T00:39:57.602Z,996.44
2018-02-02T00:41:07.544Z,996.53
2018-02-02T00:42:17.252Z,996.46
2018-02-02T00:43:27.205Z,996.52
2018-02-02T00:44:37.190Z,996.45
2018-02-02T00:45:46.869Z,996.54
2018-02-02T00:46:56.553Z,996.47
2018-02-02T00:48:06.234Z,996.48
2018-02-02T00:49:16.186Z,996.46
2018-02-02T00:50:26.124Z,996.49
2018-02-02T00:51:36.073Z,996.52
2018-02-02T00:52:45.761Z,996.48
2018-02-02T00:53:55.705Z,996.5
2018-02-02T00:55:05.379Z,996.49
2018-02-02T00:56:15.067Z,996.56
2018-02-02T00:57:25.010Z,996.5
2018-02-02T00:58:34.468Z,996.55
2018-02-02T00:59:44.423Z,996.51
2018-02-02T01:00:54.363Z,996.49
2018-02-02T01:02:04.048Z,996.51
2018-02-02T01:03:13.738Z,996.46
2018-02-02T01:04:23.688Z,996.49
2018-02-02T01:05:33.370Z,996.51
2018-02-02T01:06:43.071Z,996.47
2018-02-02T01:07:53.034Z,996.47
2018-02-02T01:09:03.016Z,996.48
2018-02-02T01:10:12.808Z,996.55
2018-02-02T01:11:22.497Z,996.53
2018-02-02T01:12:32.441Z,996.52
2018-02-02T01:13:42.375Z,996.56
2018-02-02T01:14:52.053Z,996.57
2018-02-02T01:16:01.731Z,996.54
2018-02-02T01:17:11.666Z,996.55
2018-02-02T01:18:21.348Z,996.52
2018-02-02T01:19:31.307Z,996.53
2018-02-02T01:20:41.249Z,996.55
2018-02-02T01:21:51.229Z,996.52
2018-02-02T01:23:01.234Z,996.54
2018-02-02T01:24:11.180Z,996.53
2018-02-02T01:25:21.354Z,996.52
2018-02-02T01:26:31.290Z,996.46
2018-02-02T01:27:40.986Z,996.49
2018-02-02T01:28:50.929Z,996.48
2018-02-02T01:30:00.874Z,996.47
2018-02-02T01:31:10.821Z,996.5
2018-02-02T01:32:20.761Z,996.52
2018-02-02T01:33:30.702Z,996.52
2018-02-02T01:34:40.629Z,996.55
2018-02-02T01:35:50.574Z,996.58
2018-02-02T01:37:00.524Z,996.56
2018-02-02T01:38:10.526Z,996.56
2018-02-02T01:39:20.479Z,996.53
2018-02-02T01:40:30.431Z,996.53
2018-02-02T01:41:40.369Z,996.54
2018-02-02T01:42:50.323Z,996.56
2018-02-02T01:44:00.285Z,996.56
2018-02-02T01:45:09.721Z,996.55
2018-02-02T01:46:19.673Z,996.53
2018-02-02T01:47:28.888Z,996.55
2018-02-02T01:48:38.840Z,996.55
2018-02-02T01:49:48.527Z,996.55
2018-02-02T01:50:58.220Z,996.59
2018-02-02T01:52:08.214Z,996.54
2018-02-02T01:53:18.145Z,996.59
2018-02-02T01:54:27.884Z,996.61
2018-02-02T01:55:37.811Z,996.61
2018-02-02T01:56:47.750Z,996.61
2018-02-02T01:57:57.702Z,996.58
2018-02-02T01:59:07.392Z,996.58
2018-02-02T02:00:17.080Z,996.59
2018-02-02T02:01:27.076Z,996.61
2018-02-02T02:02:37.014Z,996.61
2018-02-02T02:03:46.943Z,996.58
2018-02-02T02:04:56.636Z,996.61
2018-02-02T02:06:06.314Z,996.61
2018-02-02T02:07:15.985Z,996.59
2018-02-02T02:08:25.932Z,996.57
2018-02-02T02:09:35.889Z,996.59
2018-02-02T02:10:45.586Z,996.58
2018-02-02T02:11:55.265Z,996.59
2018-02-02T02:13:04.957Z,996.6
2018-02-02T02:14:14.642Z,996.6
2018-02-02T02:15:24.579Z,996.64
2018-02-02T02:16:34.566Z,996.61
2018-02-02T02:17:43.987Z,996.64
2018-02-02T02:18:53.663Z,996.69
2018-02-02T02:20:03.612Z,996.68
2018-02-02T02:21:13.302Z,996.67
2018-02-02T02:22:23.238Z,996.67
2018-02-02T02:23:33.163Z,996.65
2018-02-02T02:24:43.104Z,996.67
2018-02-02T02:25:53.048Z,996.64
2018-02-02T02:27:02.745Z,996.64
2018-02-02T02:28:12.688Z,996.62
2018-02-02T02:29:22.633Z,996.63
2018-02-02T02:30:32.319Z,996.62
2018-02-02T02:31:42.255Z,996.62
2018-02-02T02:32:52.196Z,996.64
2018-02-02T02:34:02.151Z,996.59
2018-02-02T02:35:12.091Z,996.64
2018-02-02T02:36:21.805Z,996.65
2018-02-02T02:37:31.750Z,996.62
2018-02-02T02:38:41.442Z,996.64
2018-02-02T02:39:51.129Z,996.68
2018-02-02T02:41:01.066Z,996.69
2018-02-02T02:42:10.998Z,996.66
2018-02-02T02:43:20.688Z,996.64
2018-02-02T02:44:30.372Z,996.64
2018-02-02T02:45:40.320Z,996.64
2018-02-02T02:46:50.331Z,996.65
2018-02-02T02:48:00.016Z,996.7
2018-02-02T02:49:09.981Z,996.73
2018-02-02T02:50:19.914Z,996.73
2018-02-02T02:51:29.591Z,996.71
2018-02-02T02:52:39.522Z,996.73
2018-02-02T02:53:49.460Z,996.71
2018-02-02T02:54:59.394Z,996.73
2018-02-02T02:56:09.070Z,996.71
2018-02-02T02:57:18.759Z,996.66
2018-02-02T02:58:28.447Z,996.7
2018-02-02T02:59:38.386Z,996.66
2018-02-02T03:00:47.821Z,996.66
2018-02-02T03:01:57.765Z,996.68
2018-02-02T03:03:07.711Z,996.66
2018-02-02T03:04:17.648Z,996.68
2018-02-02T03:05:27.065Z,996.71
2018-02-02T03:06:36.768Z,996.74
2018-02-02T03:07:46.726Z,996.76
2018-02-02T03:08:56.708Z,996.78
2018-02-02T03:10:06.690Z,996.8
2018-02-02T03:11:16.677Z,996.81
2018-02-02T03:12:26.401Z,996.77
2018-02-02T03:13:36.124Z,996.8
2018-02-02T03:14:46.093Z,996.81
2018-02-02T03:15:55.807Z,996.77
2018-02-02T03:17:05.776Z,996.84
2018-02-02T03:18:15.493Z,996.79
2018-02-02T03:19:25.209Z,996.79
2018-02-02T03:20:35.177Z,996.79
2018-02-02T03:21:45.153Z,996.85
2018-02-02T03:22:55.146Z,996.87
2018-02-02T03:24:04.881Z,996.87
2018-02-02T03:25:14.609Z,996.85
2018-02-02T03:26:24.599Z,996.81
2018-02-02T03:27:34.309Z,996.82
2018-02-02T03:28:44.288Z,996.8
2018-02-02T03:29:54.256Z,996.81
2018-02-02T03:31:04.243Z,996.87
2018-02-02T03:32:13.970Z,996.82
2018-02-02T03:33:24.001Z,996.82
2018-02-02T03:34:33.970Z,996.83
2018-02-02T03:35:43.453Z,996.84
2018-02-02T03:36:53.429Z,996.85
2018-02-02T03:38:03.397Z,996.85
2018-02-02T03:39:13.367Z,996.88
2018-02-02T03:40:23.339Z,996.9
2018-02-02T03:41:33.325Z,996.89
2018-02-02T03:42:43.302Z,996.91
2018-02-02T03:43:52.789Z,996.91
2018-02-02T03:45:02.508Z,996.9
2018-02-02T03:46:12.492Z,996.93
2018-02-02T03:47:22.195Z,996.94
2018-02-02T03:48:32.172Z,996.95
2018-02-02T03:49:41.894Z,996.92
2018-02-02T03:50:51.613Z,996.94
2018-02-02T03:52:01.087Z,996.96
2018-02-02T03:53:10.817Z,996.97
2018-02-02T03:54:20.543Z,996.97
2018-02-02T03:55:30.261Z,996.95
2018-02-02T03:56:40.240Z,997
2018-02-02T03:57:50.221Z,997
2018-02-02T03:58:59.697Z,997
2018-02-02T04:00:09.688Z,997.01
2018-02-02T04:01:19.402Z,997.02
2018-02-02T04:02:29.383Z,997
2018-02-02T04:03:39.368Z,997.02
2018-02-02T04:04:49.081Z,997.03
2018-02-02T04:05:59.058Z,997.04
2018-02-02T04:07:09.046Z,997.05
2018-02-02T04:08:19.023Z,997.05
2018-02-02T04:09:28.479Z,997.06
2018-02-02T04:10:38.223Z,997.06
2018-02-02T04:11:48.219Z,997.07
2018-02-02T04:12:58.198Z,997.06
2018-02-02T04:14:07.918Z,997.07
2018-02-02T04:15:17.644Z,997.08
2018-02-02T04:16:27.631Z,997.07
2018-02-02T04:17:37.611Z,997.07
2018-02-02T04:18:47.546Z,997.04
2018-02-02T04:19:57.796Z,997.11
2018-02-02T04:21:07.756Z,997.07
2018-02-02T04:22:17.691Z,997.06
2018-02-02T04:23:27.366Z,997.05
2018-02-02T04:24:37.058Z,997.07
2018-02-02T04:25:47.006Z,997.05
2018-02-02T04:26:56.935Z,997.11
2018-02-02T04:28:06.882Z,997.05
2018-02-02T04:29:16.604Z,997.1
2018-02-02T04:30:26.080Z,997.05
2018-02-02T04:31:36.058Z,997.09
2018-02-02T04:32:46.041Z,997.12
2018-02-02T04:33:56.014Z,997.11
2018-02-02T04:35:05.728Z,997.13
2018-02-02T04:36:15.442Z,997.13
2018-02-02T04:37:25.433Z,997.11
2018-02-02T04:38:35.410Z,997.15
2018-02-02T04:39:45.153Z,997.12
2018-02-02T04:40:55.118Z,997.08
2018-02-02T04:42:04.834Z,997.06
2018-02-02T04:43:14.830Z,997.05
2018-02-02T04:44:24.544Z,997.04
2018-02-02T04:45:34.511Z,996.99
2018-02-02T04:46:44.226Z,997.01
2018-02-02T04:47:54.200Z,997
2018-02-02T04:49:03.980Z,997.02
2018-02-02T04:50:13.948Z,997.02
2018-02-02T04:51:23.413Z,997.03
2018-02-02T04:52:33.141Z,997.02
2018-02-02T04:53:43.144Z,997.04
2018-02-02T04:54:52.872Z,997.02
2018-02-02T04:56:02.589Z,997.07
2018-02-02T04:57:12.622Z,997.12
2018-02-02T04:58:22.615Z,997.07
2018-02-02T04:59:32.588Z,997.09
2018-02-02T05:00:42.295Z,997.15
2018-02-02T05:01:52.277Z,997.24
2018-02-02T05:03:02.264Z,997.2
2018-02-02T05:04:11.982Z,997.26
2018-02-02T05:05:21.959Z,997.25
2018-02-02T05:06:32.176Z,997.26
2018-02-02T05:07:41.908Z,997.29
2018-02-02T05:08:51.629Z,997.27
2018-02-02T05:10:01.656Z,997.24
2018-02-02T05:11:11.652Z,997.31
2018-02-02T05:12:21.619Z,997.34
2018-02-02T05:13:31.342Z,997.37
2018-02-02T05:14:40.801Z,997.34
2018-02-02T05:15:50.515Z,997.37
2018-02-02T05:17:00.498Z,997.43
2018-02-02T05:18:10.203Z,997.48
2018-02-02T05:19:19.914Z,997.46
2018-02-02T05:20:29.889Z,997.45
2018-02-02T05:21:39.861Z,997.41
2018-02-02T05:22:49.829Z,997.35
2018-02-02T05:23:59.819Z,997.41
2018-02-02T05:25:09.292Z,997.37
2018-02-02T05:26:19.276Z,997.33
2018-02-02T05:27:29.258Z,997.35
2018-02-02T05:28:39.019Z,997.34
2018-02-02T05:29:48.985Z,997.32
2018-02-02T05:30:58.969Z,997.31
2018-02-02T05:32:08.707Z,997.31
2018-02-02T05:33:18.681Z,997.25
2018-02-02T05:34:28.659Z,997.27
2018-02-02T05:35:38.137Z,997.27
2018-02-02T05:36:48.125Z,997.21
2018-02-02T05:37:57.868Z,997.23
2018-02-02T05:39:07.579Z,997.21
2018-02-02T05:40:17.555Z,997.21
2018-02-02T05:41:27.546Z,997.16
2018-02-02T05:42:37.526Z,997.18
2018-02-02T05:43:47.533Z,997.19
2018-02-02T05:44:57.525Z,997.13
2018-02-02T05:46:07.508Z,997.15
2018-02-02T05:47:17.229Z,997.13
2018-02-02T05:48:26.420Z,997.13
2018-02-02T05:49:36.402Z,997.18
2018-02-02T05:50:46.382Z,997.17
2018-02-02T05:51:55.840Z,997.19
2018-02-02T05:53:05.823Z,997.21
2018-02-02T05:54:15.550Z,997.25
2018-02-02T05:55:25.530Z,997.22
2018-02-02T05:56:34.993Z,997.24
2018-02-02T05:57:44.958Z,997.25
2018-02-02T05:58:54.679Z,997.29
2018-02-02T06:00:04.392Z,997.33
2018-02-02T06:01:14.382Z,997.34
2018-02-02T06:02:24.343Z,997.3
2018-02-02T06:03:34.323Z,997.34
2018-02-02T06:04:44.315Z,997.33
2018-02-02T06:05:54.302Z,997.29
2018-02-02T06:07:04.035Z,997.26
2018-02-02T06:08:14.046Z,997.29
2018-02-02T06:09:23.752Z,997.3
2018-02-02T06:10:33.760Z,997.3
2018-02-02T06:11:43.774Z,997.36
2018-02-02T06:12:53.774Z,997.38
2018-02-02T06:14:03.493Z,997.35
2018-02-02T06:15:13.483Z,997.37
2018-02-02T06:16:23.179Z,997.33
2018-02-02T06:17:33.130Z,997.37
2018-02-02T06:18:43.117Z,997.41
2018-02-02T06:19:52.829Z,997.42
2018-02-02T06:21:02.804Z,997.44
2018-02-02T06:22:12.272Z,997.45
2018-02-02T06:23:22.255Z,997.43
2018-02-02T06:24:31.971Z,997.4
2018-02-02T06:25:41.960Z,997.42
2018-02-02T06:26:51.996Z,997.38
2018-02-02T06:28:05.208Z,997.42
2018-02-02T06:29:15.216Z,997.45
2018-02-02T06:30:25.194Z,997.43
2018-02-02T06:31:35.167Z,997.46
2018-02-02T06:32:45.135Z,997.44
2018-02-02T06:33:55.167Z,997.52
2018-02-02T06:35:05.176Z,997.49
2018-02-02T06:36:14.893Z,997.45
2018-02-02T06:37:24.629Z,997.47
2018-02-02T06:38:34.620Z,997.51
2018-02-02T06:39:44.357Z,997.48
2018-02-02T06:40:54.096Z,997.44
2018-02-02T06:42:03.822Z,997.4
2018-02-02T06:43:13.760Z,997.42
2018-02-02T06:44:23.440Z,997.47
2018-02-02T06:45:33.124Z,997.45
2018-02-02T06:46:43.064Z,997.46
2018-02-02T06:47:52.760Z,997.46
2018-02-02T06:49:02.758Z,997.44
2018-02-02T06:50:12.737Z,997.48
2018-02-02T06:51:22.718Z,997.53
2018-02-02T06:52:32.707Z,997.46
2018-02-02T06:53:42.704Z,997.4
2018-02-02T06:54:52.427Z,997.46
2018-02-02T06:56:02.401Z,997.45
2018-02-02T06:57:12.140Z,997.48
2018-02-02T06:58:22.125Z,997.47
2018-02-02T06:59:32.119Z,997.48
2018-02-02T07:00:41.826Z,997.49
2018-02-02T07:01:51.572Z,997.55
2018-02-02T07:03:01.562Z,997.55
2018-02-02T07:04:11.537Z,997.53
2018-02-02T07:05:21.272Z,997.55
2018-02-02T07:06:30.981Z,997.62
2018-02-02T07:07:40.983Z,997.58
2018-02-02T07:08:51.214Z,997.58
2018-02-02T07:10:00.682Z,997.57
2018-02-02T07:11:10.401Z,997.62
2018-02-02T07:12:20.461Z,997.61
2018-02-02T07:13:29.669Z,997.6
2018-02-02T07:14:39.666Z,997.61
2018-02-02T07:15:49.381Z,997.59
2018-02-02T07:16:59.362Z,997.63
2018-02-02T07:18:09.094Z,997.61
2018-02-02T07:19:19.070Z,997.64
2018-02-02T07:20:29.306Z,997.65
2018-02-02T07:21:39.336Z,997.68
2018-02-02T07:22:49.085Z,997.65
2018-02-02T07:23:58.823Z,997.69
2018-02-02T07:25:08.537Z,997.67
2018-02-02T07:26:18.263Z,997.69
2018-02-02T07:27:28.245Z,997.7
2018-02-02T07:28:38.256Z,997.66
2018-02-02T07:29:47.996Z,997.69
2018-02-02T07:30:58.004Z,997.67
2018-02-02T07:32:07.760Z,997.64
2018-02-02T07:33:17.745Z,997.65
2018-02-02T07:34:27.460Z,997.64
2018-02-02T07:35:37.470Z,997.67
2018-02-02T07:36:47.453Z,997.63
2018-02-02T07:37:57.438Z,997.61
2018-02-02T07:39:07.458Z,997.65
2018-02-02T07:40:17.442Z,997.64
2018-02-02T07:41:27.434Z,997.68
2018-02-02T07:42:37.167Z,997.68
2018-02-02T07:43:47.157Z,997.68
2018-02-02T07:44:57.141Z,997.65
2018-02-02T07:46:06.894Z,997.66
2018-02-02T07:47:16.878Z,997.62
2018-02-02T07:48:26.940Z,997.61
2018-02-02T07:49:36.920Z,997.67
2018-02-02T07:50:46.915Z,997.61
2018-02-02T07:51:56.406Z,997.59
2018-02-02T07:53:05.973Z,997.59
2018-02-02T07:54:15.440Z,997.61
2018-02-02T07:55:25.432Z,997.64
2018-02-02T07:56:35.397Z,997.65
2018-02-02T07:57:45.133Z,997.63
2018-02-02T07:58:54.877Z,997.7
2018-02-02T08:00:04.366Z,997.66
2018-02-02T08:01:14.465Z,997.72
2018-02-02T08:02:24.465Z,997.67
2018-02-02T08:03:34.469Z,997.73
2018-02-02T08:04:43.940Z,997.73
2018-02-02T08:05:53.915Z,997.73
2018-02-02T08:07:03.895Z,997.77
2018-02-02T08:08:13.622Z,997.79
2018-02-02T08:09:23.623Z,997.79
2018-02-02T08:10:33.702Z,997.79
2018-02-02T08:11:43.428Z,997.81
2018-02-02T08:12:53.406Z,997.77
2018-02-02T08:14:03.129Z,997.76
2018-02-02T08:15:13.127Z,997.82
2018-02-02T08:16:23.107Z,997.77
2018-02-02T08:17:33.097Z,997.78
2018-02-02T08:18:43.079Z,997.76
2018-02-02T08:19:53.071Z,997.77
2018-02-02T08:21:02.829Z,997.74
2018-02-02T08:22:12.884Z,997.78
2018-02-02T08:23:22.889Z,997.74
2018-02-02T08:24:32.617Z,997.71
2018-02-02T08:25:42.620Z,997.73
2018-02-02T08:26:52.079Z,997.77
2018-02-02T08:28:02.317Z,997.79
2018-02-02T08:29:12.321Z,997.72
2018-02-02T08:30:22.290Z,997.76
2018-02-02T08:31:32.274Z,997.78
2018-02-02T08:32:42.281Z,997.75
2018-02-02T08:33:51.999Z,997.79
2018-02-02T08:35:01.982Z,997.79
2018-02-02T08:36:11.989Z,997.82
2018-02-02T08:37:22.010Z,997.83
2018-02-02T08:38:31.752Z,997.8
2018-02-02T08:39:41.473Z,997.81
2018-02-02T08:40:51.450Z,997.79
2018-02-02T08:42:01.488Z,997.85
2018-02-02T08:43:11.462Z,997.87
2018-02-02T08:44:21.451Z,997.84
2018-02-02T08:45:31.461Z,997.87
2018-02-02T08:46:41.446Z,997.81
2018-02-02T08:47:51.435Z,997.85
2018-02-02T08:49:01.509Z,997.85
2018-02-02T08:50:11.513Z,997.78
2018-02-02T08:51:21.510Z,997.8
2018-02-02T08:52:31.261Z,997.82
2018-02-02T08:53:41.280Z,997.8
2018-02-02T08:54:51.022Z,997.82
2018-02-02T08:56:00.753Z,997.82
2018-02-02T08:57:10.747Z,997.83
2018-02-02T08:58:20.735Z,997.88
2018-02-02T08:59:30.479Z,997.86
2018-02-02T09:00:40.460Z,997.88
2018-02-02T09:01:50.507Z,997.86
2018-02-02T09:02:59.984Z,997.82
2018-02-02T09:04:09.967Z,997.87
2018-02-02T09:05:19.966Z,997.86
2018-02-02T09:06:29.971Z,997.91
2018-02-02T09:07:39.945Z,997.87
2018-02-02T09:08:49.691Z,997.84
2018-02-02T09:09:59.691Z,997.88
2018-02-02T09:11:09.686Z,997.87
2018-02-02T09:12:19.453Z,997.9
2018-02-02T09:13:29.435Z,997.97
2018-02-02T09:14:39.175Z,997.9
2018-02-02T09:15:48.932Z,997.96
2018-02-02T09:16:58.922Z,997.87
2018-02-02T09:18:08.928Z,997.93
2018-02-02T09:19:18.936Z,997.87
2018-02-02T09:20:28.901Z,997.96
2018-02-02T09:21:38.645Z,997.95
2018-02-02T09:22:48.639Z,997.99
2018-02-02T09:23:58.637Z,997.96
2018-02-02T09:25:08.372Z,998.01
2018-02-02T09:26:18.118Z,997.94
2018-02-02T09:27:27.853Z,997.91
2018-02-02T09:28:37.893Z,997.93
2018-02-02T09:29:47.628Z,997.88
2018-02-02T09:30:57.640Z,997.9
2018-02-02T09:32:07.138Z,997.92
2018-02-02T09:33:16.895Z,997.94
2018-02-02T09:34:26.891Z,997.87
2018-02-02T09:35:36.615Z,997.96
2018-02-02T09:36:46.621Z,997.95
2018-02-02T09:37:56.356Z,997.97
2018-02-02T09:39:06.094Z,997.97
2018-02-02T09:40:16.089Z,998
2018-02-02T09:41:26.107Z,997.97
2018-02-02T09:42:36.104Z,998.05
2018-02-02T09:43:46.120Z,997.97
2018-02-02T09:44:56.349Z,998.01
2018-02-02T09:46:06.101Z,998.05
2018-02-02T09:47:15.853Z,998.05
2018-02-02T09:48:25.856Z,998.08
2018-02-02T09:49:35.835Z,998.03
2018-02-02T09:50:45.613Z,998.02
2018-02-02T09:51:55.619Z,998.06
2018-02-02T09:53:05.094Z,998.09
2018-02-02T09:54:14.570Z,998.06
2018-02-02T09:55:24.581Z,997.87
2018-02-02T09:56:34.588Z,998.06
2018-02-02T09:57:44.325Z,998.08
2018-02-02T09:58:54.053Z,998.1
2018-02-02T10:00:03.794Z,998.03
2018-02-02T10:01:13.818Z,998.08
2018-02-02T10:02:23.826Z,998.19
2018-02-02T10:03:33.820Z,998.07
2018-02-02T10:04:43.819Z,998.02
2018-02-02T10:05:53.805Z,997.9
2018-02-02T10:07:03.546Z,997.99
2018-02-02T10:08:13.277Z,997.95
2018-02-02T10:09:23.014Z,997.99
2018-02-02T10:10:33.067Z,997.94
2018-02-02T10:11:43.078Z,997.91
2018-02-02T10:12:52.814Z,997.94
2018-02-02T10:14:02.802Z,997.95
2018-02-02T10:15:12.803Z,998.03
2018-02-02T10:16:22.289Z,997.96
2018-02-02T10:17:32.291Z,998.01
2018-02-02T10:18:42.290Z,998.06
2018-02-02T10:19:52.308Z,998.02
2018-02-02T10:21:02.309Z,997.98
2018-02-02T10:22:12.313Z,997.92
2018-02-02T10:23:22.313Z,997.92
2018-02-02T10:24:32.051Z,997.88
2018-02-02T10:25:41.793Z,997.85
2018-02-02T10:26:51.824Z,997.87
2018-02-02T10:28:01.812Z,997.82
2018-02-02T10:29:11.558Z,997.89
2018-02-02T10:30:21.310Z,997.88
2018-02-02T10:31:31.273Z,997.82
2018-02-02T10:32:41.236Z,997.86
2018-02-02T10:33:50.951Z,997.83
2018-02-02T10:35:00.915Z,997.88
2018-02-02T10:36:09.844Z,997.89
2018-02-02T10:37:19.807Z,997.86
2018-02-02T10:38:29.778Z,997.87
2018-02-02T10:39:39.720Z,997.95
2018-02-02T10:40:49.422Z,997.84
2018-02-02T10:41:59.403Z,997.81
2018-02-02T10:43:09.361Z,997.96
2018-02-02T10:44:19.360Z,997.95
2018-02-02T10:45:29.316Z,997.82
2018-02-02T10:46:39.049Z,997.88
2018-02-02T10:47:49.003Z,997.76
2018-02-02T10:48:58.703Z,997.86
2018-02-02T10:50:08.673Z,997.77
2018-02-02T10:51:18.117Z,997.73
2018-02-02T10:52:28.072Z,997.71
2018-02-02T10:53:38.054Z,997.72
2018-02-02T10:54:47.753Z,997.71
2018-02-02T10:55:57.726Z,997.7
2018-02-02T10:57:07.173Z,997.7
2018-02-02T10:58:16.865Z,997.61
2018-02-02T10:59:26.326Z,997.74
2018-02-02T11:00:36.060Z,997.75
2018-02-02T11:01:45.807Z,997.75
2018-02-02T11:02:55.544Z,997.73
2018-02-02T11:04:05.007Z,997.75
2018-02-02T11:05:14.969Z,997.68
2018-02-02T11:06:24.426Z,997.59
2018-02-02T11:07:34.452Z,997.75
2018-02-02T11:08:44.424Z,997.67
2018-02-02T11:09:54.117Z,997.58
2018-02-02T11:11:04.083Z,997.63
2018-02-02T11:12:14.049Z,997.61
2018-02-02T11:13:24.006Z,997.59
2018-02-02T11:14:33.183Z,997.47
2018-02-02T11:15:42.878Z,997.71
2018-02-02T11:16:52.828Z,997.6
2018-02-02T11:18:02.782Z,997.47
2018-02-02T11:19:12.726Z,997.57
2018-02-02T11:20:22.684Z,997.49
2018-02-02T11:21:32.731Z,997.43
2018-02-02T11:22:42.684Z,997.5
2018-02-02T11:23:52.630Z,997.43
2018-02-02T11:25:02.342Z,997.48
2018-02-02T11:26:12.321Z,997.54
2018-02-02T11:27:22.261Z,997.48
2018-02-02T11:28:32.220Z,997.38
2018-02-02T11:29:42.190Z,997.42
2018-02-02T11:30:52.134Z,997.37
2018-02-02T11:32:02.105Z,997.42
2018-02-02T11:33:12.105Z,997.44
2018-02-02T11:34:22.090Z,997.49
2018-02-02T11:35:32.059Z,997.38
2018-02-02T11:36:42.012Z,997.39
2018-02-02T11:37:51.969Z,997.38
2018-02-02T11:39:01.936Z,997.44
2018-02-02T11:40:11.637Z,997.36
2018-02-02T11:41:21.597Z,997.34
2018-02-02T11:42:31.556Z,997.36
2018-02-02T11:43:41.508Z,997.43
2018-02-02T11:44:51.474Z,997.46
2018-02-02T11:46:01.431Z,997.41
2018-02-02T11:47:11.376Z,997.48
2018-02-02T11:48:21.130Z,997.5
2018-02-02T11:49:30.777Z,997.43
2018-02-02T11:50:40.746Z,997.44
2018-02-02T11:51:50.709Z,997.38
2018-02-02T11:53:00.425Z,997.46
2018-02-02T11:54:10.437Z,997.42
2018-02-02T11:55:20.397Z,997.44
2018-02-02T11:56:30.337Z,997.5
2018-02-02T11:57:40.044Z,997.44
2018-02-02T11:58:50.017Z,997.49
2018-02-02T11:59:59.996Z,997.4
2018-02-02T12:01:09.746Z,997.46
2018-02-02T12:02:19.689Z,997.27
2018-02-02T12:03:29.394Z,997.37
2018-02-02T12:04:39.089Z,997.4
2018-02-02T12:05:49.057Z,997.4
2018-02-02T12:06:59.038Z,997.39
2018-02-02T12:08:09.003Z,997.39
2018-02-02T12:09:18.952Z,997.37
2018-02-02T12:10:28.919Z,997.39
2018-02-02T12:11:38.866Z,997.31
2018-02-02T12:12:48.830Z,997.36
2018-02-02T12:13:58.780Z,997.31
2018-02-02T12:15:08.238Z,997.33
2018-02-02T12:16:18.040Z,997.31
2018-02-02T12:17:27.756Z,997.37
2018-02-02T12:18:37.715Z,997.28
2018-02-02T12:19:47.691Z,997.3
2018-02-02T12:20:57.663Z,997.3
2018-02-02T12:22:07.881Z,997.47
2018-02-02T12:23:17.568Z,997.29
2018-02-02T12:24:27.013Z,997.34
2018-02-02T12:25:37.214Z,997.3
2018-02-02T12:26:47.157Z,997.16
2018-02-02T12:27:57.127Z,997.3
2018-02-02T12:29:06.832Z,997.33
2018-02-02T12:30:16.796Z,997.39
2018-02-02T12:31:26.499Z,997.34
2018-02-02T12:32:36.458Z,997.32
2018-02-02T12:33:46.174Z,997.21
2018-02-02T12:34:56.183Z,997.33
2018-02-02T12:36:06.154Z,997.4
2018-02-02T12:37:16.118Z,997.41
2018-02-02T12:38:26.074Z,997.35
2018-02-02T12:39:36.033Z,997.44
2018-02-02T12:40:45.990Z,997.44
2018-02-02T12:41:55.759Z,997.37
2018-02-02T12:43:05.704Z,997.35
2018-02-02T12:44:15.740Z,997.33
2018-02-02T12:45:25.696Z,997.35
2018-02-02T12:46:35.656Z,997.32
2018-02-02T12:47:45.612Z,997.31
2018-02-02T12:48:55.589Z,997.31
2018-02-02T12:50:05.038Z,997.32
2018-02-02T12:51:14.736Z,997.3
2018-02-02T12:52:24.699Z,997.28
2018-02-02T12:53:34.662Z,997.31
2018-02-02T12:54:44.633Z,997.25
2018-02-02T12:55:54.579Z,997.27
2018-02-02T12:57:04.519Z,997.25
2018-02-02T12:58:14.476Z,997.23
2018-02-02T12:59:24.439Z,997.28
2018-02-02T13:00:34.130Z,997.22
2018-02-02T13:01:43.860Z,997.24
2018-02-02T13:02:53.805Z,997.21
2018-02-02T13:04:03.236Z,997.2
2018-02-02T13:05:12.671Z,997.24
2018-02-02T13:06:22.673Z,997.27
2018-02-02T13:07:32.398Z,997.29
2018-02-02T13:08:42.392Z,997.29
2018-02-02T13:09:51.838Z,997.17
2018-02-02T13:11:01.794Z,997.24
2018-02-02T13:12:11.754Z,997.23
2018-02-02T13:13:21.500Z,997.19
2018-02-02T13:14:31.195Z,997.24
2018-02-02T13:15:41.171Z,997.23
2018-02-02T13:16:50.865Z,997.12
2018-02-02T13:18:00.834Z,997.18
2018-02-02T13:19:10.797Z,997.17
2018-02-02T13:20:20.751Z,997.17
2018-02-02T13:21:30.452Z,997.17
2018-02-02T13:22:40.448Z,997.23
2018-02-02T13:23:50.414Z,997.19
2018-02-02T13:25:00.393Z,997.1
2018-02-02T13:26:10.359Z,997.2
2018-02-02T13:27:20.321Z,997.2
2018-02-02T13:28:30.012Z,997.12
2018-02-02T13:29:40.028Z,997.18
2018-02-02T13:30:49.740Z,997.21
2018-02-02T13:31:59.693Z,996.99
2018-02-02T13:33:09.639Z,997.19
2018-02-02T13:34:19.345Z,997.14
2018-02-02T13:35:29.292Z,997.19
2018-02-02T13:36:39.241Z,997.12
2018-02-02T13:37:48.928Z,997.14
2018-02-02T13:38:58.610Z,997.1
2018-02-02T13:40:08.308Z,997.12
2018-02-02T13:41:18.264Z,997.14
2018-02-02T13:42:27.957Z,997.13
2018-02-02T13:43:37.924Z,997.12
2018-02-02T13:44:47.899Z,997.07
2018-02-02T13:45:57.868Z,997.1
2018-02-02T13:47:07.827Z,997.05
2018-02-02T13:48:17.785Z,997.12
2018-02-02T13:49:27.639Z,997.11
2018-02-02T13:50:37.593Z,996.99
2018-02-02T13:51:47.276Z,997.1
2018-02-02T13:52:57.234Z,997.14
2018-02-02T13:54:07.256Z,997.12
2018-02-02T13:55:16.709Z,997.17
2018-02-02T13:56:26.423Z,997.1
2018-02-02T13:57:36.388Z,997.17
2018-02-02T13:58:46.355Z,997.14
2018-02-02T13:59:56.310Z,997.12
2018-02-02T14:01:06.027Z,997.1
2018-02-02T14:02:15.722Z,997.05
2018-02-02T14:03:25.674Z,997.13
2018-02-02T14:04:35.104Z,997.06
2018-02-02T14:05:45.076Z,997.13
2018-02-02T14:06:54.766Z,997.17
2018-02-02T14:08:03.986Z,997.07
2018-02-02T14:09:13.682Z,997.07
2018-02-02T14:10:23.114Z,997.03
2018-02-02T14:11:33.073Z,997.1
2018-02-02T14:12:43.052Z,997.06
2018-02-02T14:13:53.033Z,997.04
2018-02-02T14:15:02.487Z,997.1
2018-02-02T14:16:12.439Z,997.11
2018-02-02T14:17:22.393Z,997.12
2018-02-02T14:18:32.336Z,997.11
2018-02-02T14:19:42.352Z,997.1
2018-02-02T14:20:52.055Z,997.14
2018-02-02T14:22:01.998Z,997.1
2018-02-02T14:23:11.976Z,997.07
2018-02-02T14:24:21.944Z,997.06
2018-02-02T14:25:31.887Z,997.03
2018-02-02T14:26:41.585Z,997.06
2018-02-02T14:27:51.533Z,997.07
2018-02-02T14:29:01.230Z,997.1
2018-02-02T14:30:11.188Z,997.05
2018-02-02T14:31:20.874Z,997.02
2018-02-02T14:32:30.570Z,997.05
2018-02-02T14:33:40.529Z,997.05
2018-02-02T14:34:50.490Z,996.97